createdAt,value
2023-12-22T00:01:38.983Z,96152.04
2023-12-22T00:04:14.698Z,96149.84
2023-12-22T00:07:02.695Z,96152.23
2023-12-22T00:10:14.304Z,96153.49
2023-12-22T00:13:13.213Z,96149.57
2023-12-22T00:16:19.746Z,96147.47
2023-12-22T00:19:44.194Z,96140.55
2023-12-22T00:22:52.812Z,96139.54
2023-12-22T00:26:03.303Z,96143.30
2023-12-22T00:29:05.717Z,96150.60
2023-12-22T00:32:13.246Z,96158.91
2023-12-22T00:35:25.345Z,96161.23
2023-12-22T00:38:32.187Z,96164.94
2023-12-22T00:41:29.923Z,96164.59
2023-12-22T00:44:31.267Z,96172.33
2023-12-22T00:47:28.043Z,96171.51
2023-12-22T00:50:14.716Z,96174.80
2023-12-22T00:53:29.575Z,96177.06
2023-12-22T00:56:52.978Z,96179.77
2023-12-22T00:59:46.604Z,96188.56
2023-12-22T01:02:52.924Z,96182.69
2023-12-22T01:05:50.698Z,96180.48
2023-12-22T01:08:42.793Z,96183.16
2023-12-22T01:11:53.832Z,96176.23
2023-12-22T01:15:08.034Z,96176.65
2023-12-22T01:18:35.675Z,96183.54
2023-12-22T01:21:59.784Z,96190.55
2023-12-22T01:25:04.308Z,96192.38
2023-12-22T01:27:49.531Z,96182.81
2023-12-22T01:30:49.730Z,96180.80
2023-12-22T01:33:41.382Z,96178.65
2023-12-22T01:36:23.633Z,96178.05
2023-12-22T01:39:44.618Z,96180.52
2023-12-22T01:42:36.656Z,96180.42
2023-12-22T01:45:47.295Z,96179.39
2023-12-22T01:49:20.072Z,96173.05
2023-12-22T01:52:21.618Z,96182.88
2023-12-22T01:55:31.622Z,96184.52
2023-12-22T01:58:45.556Z,96191.43
2023-12-22T02:01:38.249Z,96190.47
2023-12-22T02:04:38.935Z,96199.23
2023-12-22T02:07:41.795Z,96204.20
2023-12-22T02:10:37.026Z,96203.68
2023-12-22T02:14:07.358Z,96207.22
2023-12-22T02:18:00.480Z,96202.12
2023-12-22T02:21:06.475Z,96195.37
2023-12-22T02:24:01.483Z,96193.52
2023-12-22T02:26:49.754Z,96192.30
2023-12-22T02:29:46.562Z,96188.12
2023-12-22T02:32:41.053Z,96183.67
2023-12-22T02:35:39.684Z,96181.87
2023-12-22T02:38:40.692Z,96189.34
2023-12-22T02:41:30.142Z,96188.81
2023-12-22T02:44:23.128Z,96188.40
2023-12-22T02:47:31.722Z,96186.80
2023-12-22T02:50:32.815Z,96187.33
2023-12-22T02:53:30.189Z,96190.54
2023-12-22T02:56:26.500Z,96188.65
2023-12-22T02:59:27.133Z,96185.77
2023-12-22T03:02:24.024Z,96173.89
2023-12-22T03:05:41.083Z,96176.28
2023-12-22T03:08:32.204Z,96177.15
2023-12-22T03:11:52.270Z,96171.73
2023-12-22T03:15:04.015Z,96172.06
2023-12-22T03:18:20.812Z,96171.92
2023-12-22T03:21:23.584Z,96168.61
2023-12-22T03:24:29.661Z,96166.48
2023-12-22T03:27:18.836Z,96165.95
2023-12-22T03:30:25.035Z,96163.77
2023-12-22T03:33:27.406Z,96158.70
2023-12-22T03:36:37.865Z,96163.10
2023-12-22T03:39:33.769Z,96164.36
2023-12-22T03:42:38.926Z,96164.27
2023-12-22T03:45:29.545Z,96154.15
2023-12-22T03:48:13.875Z,96150.48
2023-12-22T03:51:11.853Z,96149.72
2023-12-22T03:54:30.720Z,96156.77
2023-12-22T03:57:44.284Z,96159.11
2023-12-22T04:00:36.439Z,96160.21
2023-12-22T04:03:33.287Z,96153.26
2023-12-22T04:06:37.784Z,96151.56
2023-12-22T04:09:26.497Z,96152.30
2023-12-22T04:12:38.170Z,96154.38
2023-12-22T04:15:37.339Z,96154.96
2023-12-22T04:18:46.927Z,96153.52
2023-12-22T04:21:33.120Z,96145.73
2023-12-22T04:24:24.762Z,96141.45
2023-12-22T04:27:27.445Z,96135.95
2023-12-22T04:30:52.740Z,96128.85
2023-12-22T04:33:52.560Z,96129.13
2023-12-22T04:36:55.432Z,96126.52
2023-12-22T04:39:59.225Z,96124.63
2023-12-22T04:43:07.401Z,96122.98
2023-12-22T04:46:10.457Z,96130.36
2023-12-22T04:49:02.697Z,96123.39
2023-12-22T04:52:42.098Z,96121.59
2023-12-22T04:55:53.864Z,96117.07
2023-12-22T04:58:45.477Z,96121.19
2023-12-22T05:01:51.904Z,96120.11
2023-12-22T05:05:02.734Z,96121.21
2023-12-22T05:07:53.026Z,96106.72
2023-12-22T05:11:13.501Z,96098.73
2023-12-22T05:14:12.625Z,96102.84
2023-12-22T05:16:58.000Z,96097.03
2023-12-22T05:19:49.923Z,96095.86
2023-12-22T05:22:43.864Z,96093.01
2023-12-22T05:25:35.237Z,96088.59
2023-12-22T05:28:50.795Z,96089.67
2023-12-22T05:32:15.891Z,96094.02
2023-12-22T05:35:21.724Z,96102.23
2023-12-22T05:38:32.005Z,96109.17
2023-12-22T05:41:50.787Z,96102.58
2023-12-22T05:44:25.394Z,96103.39
2023-12-22T05:47:16.520Z,96100.63
2023-12-22T05:50:12.378Z,96096.39
2023-12-22T05:53:16.475Z,96101.09
2023-12-22T05:56:23.447Z,96096.67
2023-12-22T05:59:47.142Z,96100.27
2023-12-22T06:02:48.829Z,96098.84
2023-12-22T06:05:51.037Z,96102.84
2023-12-22T06:08:53.043Z,96105.47
2023-12-22T06:12:39.901Z,96106.41
2023-12-22T06:16:27.973Z,96111.45
2023-12-22T06:19:29.709Z,96109.15
2023-12-22T06:22:30.961Z,96111.34
2023-12-22T06:25:21.394Z,96109.52
2023-12-22T06:28:48.192Z,96116.15
2023-12-22T06:32:07.451Z,96109.54
2023-12-22T06:35:05.413Z,96112.20
2023-12-22T06:38:11.638Z,96116.36
2023-12-22T06:41:08.007Z,96123.02
2023-12-22T06:44:12.212Z,96124.48
2023-12-22T06:47:23.100Z,96127.14
2023-12-22T06:50:41.230Z,96129.80
2023-12-22T06:53:55.473Z,96138.81
2023-12-22T06:57:14.681Z,96141.95
2023-12-22T07:00:05.078Z,96150.64
2023-12-22T07:03:10.480Z,96159.71
2023-12-22T07:06:18.432Z,96159.66
2023-12-22T07:10:22.465Z,96161.45
2023-12-22T07:13:31.873Z,96163.19
2023-12-22T07:16:46.647Z,96169.67
2023-12-22T07:19:56.346Z,96174.52
2023-12-22T07:22:46.554Z,96182.34
2023-12-22T07:25:52.000Z,96177.11
2023-12-22T07:28:59.351Z,96177.32
2023-12-22T07:32:04.979Z,96181.36
2023-12-22T07:35:38.225Z,96180.65
2023-12-22T07:38:37.069Z,96183.67
2023-12-22T07:41:38.847Z,96179.03
2023-12-22T07:44:54.380Z,96181.17
2023-12-22T07:47:54.624Z,96181.77
2023-12-22T07:51:06.148Z,96188.92
2023-12-22T07:54:07.876Z,96195.98
2023-12-22T07:57:15.003Z,96199.46
2023-12-22T08:00:09.617Z,96202.73
2023-12-22T08:03:19.939Z,96216.05
2023-12-22T08:06:29.963Z,96216.53
2023-12-22T08:09:28.058Z,96222.08
2023-12-22T08:12:38.669Z,96226.23
2023-12-22T08:15:46.377Z,96228.79
2023-12-22T08:18:54.213Z,96230.47
2023-12-22T08:22:08.526Z,96235.58
2023-12-22T08:25:21.750Z,96240.91
2023-12-22T08:28:31.481Z,96244.32
2023-12-22T08:31:35.252Z,96248.34
2023-12-22T08:34:34.250Z,96249.36
2023-12-22T08:37:51.323Z,96248.24
2023-12-22T08:41:15.987Z,96259.34
2023-12-22T08:44:19.836Z,96263.25
2023-12-22T08:47:54.498Z,96256.49
2023-12-22T08:51:28.597Z,96255.34
2023-12-22T08:54:39.942Z,96254.55
2023-12-22T08:57:53.835Z,96256.05
2023-12-22T09:01:14.113Z,96254.84
2023-12-22T09:04:09.848Z,96260.15
2023-12-22T09:07:24.413Z,96255.17
2023-12-22T09:10:38.501Z,96258.51
2023-12-22T09:13:26.272Z,96271.77
2023-12-22T09:16:17.168Z,96271.59
2023-12-22T09:19:23.135Z,96268.77
2023-12-22T09:22:13.541Z,96273.09
2023-12-22T09:25:19.631Z,96269.11
2023-12-22T09:28:08.235Z,96274.45
2023-12-22T09:31:36.681Z,96275.96
2023-12-22T09:35:07.683Z,96274.10
2023-12-22T09:38:14.803Z,96275.91
2023-12-22T09:41:25.715Z,96268.39
2023-12-22T09:44:17.080Z,96268.95
2023-12-22T09:47:39.118Z,96257.04
2023-12-22T09:51:03.486Z,96258.58
2023-12-22T09:54:26.561Z,96262.23
2023-12-22T09:57:48.271Z,96259.24
2023-12-22T10:00:54.577Z,96257.58
2023-12-22T10:04:30.698Z,96251.54
2023-12-22T10:07:57.697Z,96250.17
2023-12-22T10:11:18.913Z,96253.75
2023-12-22T10:14:40.644Z,96257.77
2023-12-22T10:17:44.033Z,96254.71
2023-12-22T10:20:41.835Z,96255.67
2023-12-22T10:23:41.327Z,96258.30
2023-12-22T10:26:59.921Z,96254.95
2023-12-22T10:30:19.951Z,96262.56
2023-12-22T10:33:33.532Z,96263.21
2023-12-22T10:36:41.313Z,96255.46
2023-12-22T10:39:47.386Z,96256.52
2023-12-22T10:42:42.249Z,96257.28
2023-12-22T10:46:06.176Z,96258.13
2023-12-22T10:52:54.973Z,96258.59
2023-12-22T10:55:53.626Z,96256.56
2023-12-22T10:58:48.583Z,96253.66
2023-12-22T11:01:45.864Z,96253.46
2023-12-22T11:04:45.937Z,96252.19
2023-12-22T11:07:47.657Z,96249.74
2023-12-22T11:10:31.861Z,96244.98
2023-12-22T11:13:41.517Z,96246.59
2023-12-22T11:16:53.752Z,96249.27
2023-12-22T11:19:41.370Z,96249.02
2023-12-22T11:22:48.918Z,96253.23
2023-12-22T11:25:54.469Z,96254.91
2023-12-22T11:29:19.326Z,96251.61
2023-12-22T11:32:05.627Z,96258.78
2023-12-22T11:35:09.120Z,96250.79
2023-12-22T11:38:01.165Z,96251.98
2023-12-22T11:40:53.500Z,96254.20
2023-12-22T11:43:54.054Z,96250.77
2023-12-22T11:46:44.307Z,96244.80
2023-12-22T11:49:14.663Z,96244.25
2023-12-22T11:52:33.308Z,96241.85
2023-12-22T11:55:21.415Z,96240.23
2023-12-22T11:59:17.015Z,96236.89
2023-12-22T12:02:14.106Z,96232.80
2023-12-22T12:05:24.061Z,96229.65
2023-12-22T12:08:24.680Z,96229.87
2023-12-22T12:11:02.324Z,96232.80
2023-12-22T12:14:06.248Z,96233.72
2023-12-22T12:17:00.163Z,96226.30
2023-12-22T12:20:15.327Z,96222.88
2023-12-22T12:23:27.550Z,96217.48
2023-12-22T12:26:23.629Z,96222.05
2023-12-22T12:29:28.594Z,96223.63
2023-12-22T12:32:28.073Z,96217.68
2023-12-22T12:35:28.668Z,96213.34
2023-12-22T12:39:04.611Z,96213.67
2023-12-22T12:42:26.455Z,96210.40
2023-12-22T12:45:20.931Z,96204.85
2023-12-22T12:48:10.590Z,96208.48
2023-12-22T12:50:52.574Z,96203.83
2023-12-22T12:53:32.930Z,96201.77
2023-12-22T12:56:27.141Z,96207.38
2023-12-22T12:59:28.922Z,96203.03
2023-12-22T13:02:34.048Z,96205.02
2023-12-22T13:05:55.072Z,96205.34
2023-12-22T13:08:39.168Z,96197.03
2023-12-22T13:11:30.829Z,96195.14
2023-12-22T13:14:43.607Z,96193.32
2023-12-22T13:17:26.550Z,96191.56
2023-12-22T13:20:14.416Z,96190.89
2023-12-22T13:23:10.727Z,96187.59
2023-12-22T13:26:18.027Z,96196.27
2023-12-22T13:29:22.926Z,96201.21
2023-12-22T13:32:51.654Z,96202.15
2023-12-22T13:36:13.969Z,96200.21
2023-12-22T13:39:37.430Z,96202.02
2023-12-22T13:42:38.584Z,96206.66
2023-12-22T13:45:50.107Z,96202.13
2023-12-22T13:49:12.021Z,96205.82
2023-12-22T13:52:47.013Z,96205.20
2023-12-22T13:55:41.211Z,96205.58
2023-12-22T13:58:24.465Z,96203.15
2023-12-22T14:01:16.128Z,96201.92
2023-12-22T14:04:29.113Z,96202.61
2023-12-22T14:07:04.007Z,96198.45
2023-12-22T14:09:39.340Z,96196.75
2023-12-22T14:12:12.056Z,96193.95
2023-12-22T14:14:41.730Z,96197.17
2023-12-22T14:17:24.675Z,96200.20
2023-12-22T14:20:20.638Z,96199.15
2023-12-22T14:23:14.635Z,96195.40
2023-12-22T14:26:38.352Z,96189.48
2023-12-22T14:29:43.984Z,96184.88
2023-12-22T14:32:31.164Z,96181.89
2023-12-22T14:36:06.594Z,96183.04
2023-12-22T14:38:55.316Z,96181.80
2023-12-22T14:41:47.788Z,96189.69
2023-12-22T14:44:42.693Z,96180.58
2023-12-22T14:47:28.350Z,96173.77
2023-12-22T14:50:05.306Z,96172.60
2023-12-22T14:53:11.760Z,96172.14
2023-12-22T14:56:05.464Z,96166.44
2023-12-22T14:59:08.628Z,96163.02
2023-12-22T15:02:06.886Z,96158.18
2023-12-22T15:04:52.621Z,96160.20
2023-12-22T15:07:56.297Z,96157.59
2023-12-22T15:11:11.574Z,96158.65
2023-12-22T15:14:03.314Z,96156.64
2023-12-22T15:21:31.594Z,96151.98
2023-12-22T15:24:51.649Z,96145.35
2023-12-22T15:27:57.115Z,96142.54
2023-12-22T15:31:13.734Z,96135.21
2023-12-22T15:33:56.751Z,96135.14
2023-12-22T15:36:48.382Z,96130.85
2023-12-22T15:39:49.915Z,96129.42
2023-12-22T15:42:54.930Z,96127.44
2023-12-22T15:46:07.644Z,96134.66
2023-12-22T15:49:09.071Z,96127.10
2023-12-22T15:52:03.560Z,96125.40
2023-12-22T15:55:02.241Z,96120.70
2023-12-22T15:58:02.452Z,96123.13
2023-12-22T16:00:57.015Z,96128.54
2023-12-22T16:03:51.429Z,96120.66
2023-12-22T16:06:56.482Z,96122.45
2023-12-22T16:10:11.679Z,96121.50
2023-12-22T16:13:14.913Z,96118.67
2023-12-22T16:16:18.009Z,96115.39
2023-12-22T16:19:17.614Z,96116.20
2023-12-22T16:22:26.084Z,96107.72
2023-12-22T16:25:37.925Z,96102.10
2023-12-22T16:32:26.892Z,96099.28
2023-12-22T16:35:27.216Z,96100.63
2023-12-22T16:38:16.333Z,96102.27
2023-12-22T16:41:22.568Z,96095.56
2023-12-22T16:44:14.691Z,96098.83
2023-12-22T16:47:31.190Z,96100.06
2023-12-22T16:50:28.057Z,96098.39
2023-12-22T16:53:11.794Z,96094.13
2023-12-22T16:56:03.106Z,96090.90
2023-12-22T16:58:51.129Z,96085.61
2023-12-22T17:01:56.356Z,96079.73
2023-12-22T17:05:15.770Z,96086.66
2023-12-22T17:08:06.241Z,96083.98
2023-12-22T17:10:57.534Z,96081.80
2023-12-22T17:14:08.273Z,96086.35
2023-12-22T17:17:16.334Z,96086.60
2023-12-22T17:20:07.527Z,96085.23
2023-12-22T17:23:04.297Z,96084.45
2023-12-22T17:25:56.850Z,96083.66
2023-12-22T17:28:40.815Z,96078.15
2023-12-22T17:31:33.104Z,96081.02
2023-12-22T17:34:00.596Z,96083.05
2023-12-22T17:36:41.077Z,96082.85
2023-12-22T17:39:19.565Z,96085.45
2023-12-22T17:42:13.216Z,96077.14
2023-12-22T17:45:09.534Z,96087.06
2023-12-22T17:48:17.310Z,96088.72
2023-12-22T17:50:51.060Z,96085.81
2023-12-22T17:53:52.087Z,96089.41
2023-12-22T17:56:54.087Z,96089.47
2023-12-22T18:00:32.124Z,96094.15
2023-12-22T18:03:53.304Z,96090.33
2023-12-22T18:06:56.026Z,96086.45
2023-12-22T18:10:05.167Z,96084.60
2023-12-22T18:13:26.125Z,96080.95
2023-12-22T18:16:25.713Z,96085.35
2023-12-22T18:19:56.682Z,96084.36
2023-12-22T18:22:54.434Z,96081.29
2023-12-22T18:25:48.590Z,96086.22
2023-12-22T18:28:48.715Z,96086.01
2023-12-22T18:31:57.292Z,96083.67
2023-12-22T18:35:05.173Z,96086.13
2023-12-22T18:38:06.885Z,96084.53
2023-12-22T18:41:12.088Z,96082.14
2023-12-22T18:44:04.190Z,96079.64
2023-12-22T18:47:41.769Z,96075.48
2023-12-22T18:51:03.436Z,96074.95
2023-12-22T18:53:59.714Z,96070.09
2023-12-22T18:56:46.828Z,96074.16
2023-12-22T18:59:51.229Z,96075.89
2023-12-22T19:02:55.895Z,96077.05
2023-12-22T19:05:51.803Z,96082.42
2023-12-22T19:09:06.880Z,96081.65
2023-12-22T19:12:38.153Z,96077.33
2023-12-22T19:15:51.221Z,96086.48
2023-12-22T19:18:48.936Z,96091.20
2023-12-22T19:21:40.982Z,96098.41
2023-12-22T19:24:48.059Z,96099.70
2023-12-22T19:27:38.819Z,96100.17
2023-12-22T19:30:31.726Z,96100.54
2023-12-22T19:33:43.238Z,96102.23
2023-12-22T19:36:20.994Z,96104.48
2023-12-22T19:39:24.499Z,96108.90
2023-12-22T19:42:10.052Z,96110.16
2023-12-22T19:45:16.649Z,96110.34
2023-12-22T19:48:08.188Z,96109.30
2023-12-22T19:51:12.676Z,96107.91
2023-12-22T19:54:07.200Z,96113.39
2023-12-22T19:56:56.058Z,96117.25
2023-12-22T19:59:51.978Z,96116.73
2023-12-22T20:02:40.114Z,96116.34
2023-12-22T20:05:27.404Z,96114.66
2023-12-22T20:08:19.777Z,96112.11
2023-12-22T20:11:27.799Z,96114.20
2023-12-22T20:14:35.058Z,96117.00
2023-12-22T20:17:35.542Z,96110.86
2023-12-22T20:20:27.730Z,96111.92
2023-12-22T20:23:33.432Z,96117.17
2023-12-22T20:26:55.597Z,96115.86
2023-12-22T20:30:32.087Z,96118.30
2023-12-22T20:37:41.972Z,96116.09
2023-12-22T20:40:58.119Z,96120.42
2023-12-22T20:44:24.862Z,96124.06
2023-12-22T20:47:27.118Z,96118.13
2023-12-22T20:50:38.051Z,96123.23
2023-12-22T20:53:30.092Z,96127.86
2023-12-22T20:56:24.560Z,96130.42
2023-12-22T20:59:10.942Z,96132.27
2023-12-22T21:02:21.647Z,96130.09
2023-12-22T21:05:21.274Z,96134.70
2023-12-22T21:08:16.863Z,96131.27
2023-12-22T21:11:20.410Z,96134.86
2023-12-22T21:14:50.968Z,96132.13
2023-12-22T21:18:28.383Z,96136.21
2023-12-22T21:22:05.470Z,96139.27
2023-12-22T21:25:23.754Z,96142.08
2023-12-22T21:28:42.107Z,96140.23
2023-12-22T21:31:35.085Z,96137.06
2023-12-22T21:34:26.723Z,96141.45
2023-12-22T21:37:44.522Z,96141.36
2023-12-22T21:41:02.306Z,96141.55
2023-12-22T21:44:09.624Z,96147.23
2023-12-22T21:47:00.835Z,96152.37
2023-12-22T21:49:43.382Z,96152.00
2023-12-22T21:53:06.886Z,96156.02
2023-12-22T21:56:16.740Z,96157.25
2023-12-22T21:59:11.425Z,96159.61
2023-12-22T22:02:19.398Z,96159.08
2023-12-22T22:05:23.372Z,96157.60
2023-12-22T22:08:18.925Z,96159.05
2023-12-22T22:11:21.695Z,96160.02
2023-12-22T22:14:25.799Z,96162.89
2023-12-22T22:17:42.028Z,96158.95
2023-12-22T22:24:40.199Z,96156.29
2023-12-22T22:27:35.572Z,96161.47
2023-12-22T22:30:25.412Z,96170.11
2023-12-22T22:34:03.974Z,96176.33
2023-12-22T22:37:08.247Z,96183.59
2023-12-22T22:40:21.089Z,96187.41
2023-12-22T22:43:13.010Z,96192.14
2023-12-22T22:46:00.735Z,96197.61
2023-12-22T22:48:52.875Z,96203.32
2023-12-22T22:52:04.046Z,96200.36
2023-12-22T22:55:10.033Z,96210.34
2023-12-22T22:58:02.188Z,96209.53
2023-12-22T23:00:55.274Z,96215.54
2023-12-22T23:04:02.481Z,96214.25
2023-12-22T23:06:48.903Z,96210.54
2023-12-22T23:09:46.235Z,96215.30
2023-12-22T23:12:57.043Z,96223.29
2023-12-22T23:16:13.836Z,96221.59
2023-12-22T23:19:14.206Z,96228.08
2023-12-22T23:22:20.220Z,96230.60
2023-12-22T23:24:56.370Z,96231.06
2023-12-22T23:27:40.534Z,96230.75
2023-12-22T23:30:34.758Z,96233.04
2023-12-22T23:33:29.340Z,96244.10
2023-12-22T23:36:22.333Z,96241.79
2023-12-22T23:39:28.076Z,96237.88
2023-12-22T23:42:16.806Z,96240.72
2023-12-22T23:45:04.605Z,96245.78
2023-12-22T23:48:02.701Z,96256.09
2023-12-22T23:50:36.310Z,96255.25
2023-12-22T23:53:26.837Z,96261.41
2023-12-22T23:56:14.306Z,96260.83
2023-12-22T23:58:56.340Z,96263.61
